• Join FlightAware (Why Join?)
  • Login
  • US Flag 
02:23AM EDT


 

Airport Tracker/Info


-or-


 

Live Flight TrackerFlight Track Log ✈ JBU972 ✈ 25-Jun-2013 ✈ KFLL - KLGA

Flight Track Log - Related Links

Times and Time Zones

All times are in EDT time to prevent confusion due to time zone crossing. See the JBU972 flight status page for this flight to view local times or setup timezone preferences in your user account.

Time Position Orientation Groundspeed Altitude Reporting Facility
EDT Latitude Longitude Course Direction KTS MPH feet Rate Location/Type
07:35AM 26.0750 -80.1367 50° Northeast 134 154 700  Level Miami Center
07:36AM 26.0825 -80.0814 81° East 154 177 2,500 2,040 Climbing Miami Center
07:37AM 26.0986 -80.0100 76° East 195 224 5,100 2,700 Climbing Miami Center
07:38AM 26.1510 -79.8030 48° Northeast  Level FlightAware Approximate
07:38AM 26.1336 -79.9347 63° Northeast 237 273 8,000  Level Miami Center
07:39AM 26.2192 -79.7013 56° Northeast  Level FlightAware Approximate
07:39AM 26.1728 -79.8547 61° Northeast 273 314 10,700  Level Miami Center
07:40AM 26.2883 -79.6009 53° Northeast  Level FlightAware Approximate
07:40AM 26.2144 -79.7608 64° Northeast 306 352 12,300  Level Miami Center
07:41AM 26.3529 -79.4961 50° Northeast  Level FlightAware Approximate
07:41AM 26.2622 -79.6622 62° Northeast 339 390 14,800  Level Miami Center
07:42AM 26.3225 -79.5711 54° Northeast 360 414 16,900 2,100 Climbing Miami Center
07:43AM 26.4261 -79.5061 29° Northeast 380 437 19,000 1,920 Climbing Miami Center
07:44AM 26.5125 -79.4594 26° Northeast 380 437 20,800 1,620 Climbing Miami Center
07:45AM 26.6244 -79.3967 27° Northeast 394 453 22,300 1,560 Climbing Miami Center
07:46AM 26.7172 -79.3428 27° Northeast 403 464 24,000 1,500 Climbing Miami Center
07:47AM 26.8206 -79.2844 27° Northeast 408 470 25,300 1,200 Climbing Miami Center
07:48AM 26.9322 -79.2264 25° Northeast 414 476 26,500 1,200 Climbing Miami Center
07:49AM 27.0419 -79.1633 27° Northeast 427 491 27,700 1,200 Climbing Miami Center
07:50AM 27.1683 -79.0933 26° Northeast 437 503 28,900 1,140 Climbing Miami Center
07:51AM 27.2792 -79.0744 North 437 503 30,000 1,200 Climbing Miami Center
07:52AM 27.4069 -79.0536 North 453 521 31,300 1,500 Climbing Miami Center
07:53AM 27.5431 -79.0325 North 458 527 33,000 1,380 Climbing Miami Center
07:54AM 27.6664 -79.0139 North 446 513 34,100 1,080 Climbing Miami Center
07:55AM 27.7919 -78.9928 North 446 513 35,200 960 Climbing Miami Center
07:56AM 27.8989 -78.9758 North 446 513 36,100 840 Climbing Miami Center
07:57AM 28.0222 -78.9547 North 439 505 36,900 420 Climbing Miami Center
07:58AM 28.1458 -78.9381 North 439 505 37,000  Climbing Miami Center
07:59AM 28.2586 -78.9167 North 439 505 37,000  Level Miami Center
08:00AM 28.3864 -78.9003 North 439 505 37,000  Level Miami Center
08:01AM 28.5036 -78.8786 North 439 505 37,000  Level Miami Center
08:02AM 28.6247 -78.8594 North 439 505 37,000  Level Miami Center
08:03AM 28.7442 -78.8403 North 433 498 37,000  Level Miami Center
08:04AM 28.8633 -78.8211 North 433 498 37,000  Level Miami Center
08:05AM 28.9844 -78.8044 North 427 491 37,000  Level Miami Center
08:06AM 29.1036 -78.7828 North 432 497 37,000  Level Miami Center
08:07AM 29.2250 -78.7658 North 432 497 37,000  Level Miami Center
08:08AM 29.3567 -78.7394 10° North 432 497 37,000  Level Miami Center
08:09AM 29.4653 -78.7247 North 427 491 37,000  Level Miami Center
08:13AM 29.8581 -78.6539 North 431 496 37,000  Level Jacksonville Center
08:14AM 29.9892 -78.6458 North 438 504 37,000  Level Jacksonville Center
08:15AM 30.0986 -78.6147 14° North 438 504 37,000  Level Jacksonville Center
08:16AM 30.2233 -78.5947 North 443 510 37,000  Level Jacksonville Center
08:17AM 30.3375 -78.5775 North 430 495 37,000  Level Jacksonville Center
08:18AM 30.4619 -78.5575 North 436 502 37,000 -60 Level Jacksonville Center
08:19AM 30.5806 -78.5400 North 436 502 36,900 -60 Descending Jacksonville Center
08:20AM 30.6986 -78.5175 North 430 495 36,900  Level Jacksonville Center
08:21AM 30.8192 -78.4975 North 430 495 37,000  Climbing Jacksonville Center
08:22AM 30.9394 -78.4775 North 435 501 37,000  Level Jacksonville Center
08:23AM 31.0639 -78.4569 North 442 509 37,000  Level Jacksonville Center
08:24AM 31.1842 -78.4344 North 442 509 37,000  Level Jacksonville Center
08:25AM 31.3047 -78.4167 North 442 509 37,000  Level Jacksonville Center
08:26AM 31.4250 -78.3936 North 442 509 37,000  Level Jacksonville Center
08:27AM 31.5475 -78.3731 North 442 509 37,000  Level Jacksonville Center
08:28AM 31.6678 -78.3528 North 442 509 37,000  Level Jacksonville Center
08:29AM 31.7881 -78.3322 North 442 509 37,000  Level Jacksonville Center
08:30AM 31.9083 -78.3139 North 442 509 37,000 -60 Level Jacksonville Center
08:31AM 32.0267 -78.2908 North 442 509 36,900 -60 Descending Jacksonville Center
08:32AM 32.1469 -78.2703 North 437 503 36,900  Level Jacksonville Center
08:33AM 32.2692 -78.2492 North 437 503 37,000  Climbing Jacksonville Center
08:34AM 32.3914 -78.2183 12° North 442 509 37,000  Level Jacksonville Center
08:35AM 32.5139 -78.2022 North 442 509 37,000  Level Jacksonville Center
08:36AM 32.6361 -78.1761 10° North 442 509 37,000  Level Jacksonville Center
08:37AM 32.7542 -78.1575 North 442 509 37,000  Level Jacksonville Center
08:38AM 32.8767 -78.1364 North 442 509 37,000 -60 Level Jacksonville Center
08:39AM 32.9969 -78.1153 North 442 509 36,900 -60 Descending Jacksonville Center
08:40AM 33.1211 -78.0936 North 442 509 36,900  Level Jacksonville Center
08:42AM 33.3350 -78.0572 North 454 522 37,000  Climbing Washington Center
08:42AM 33.4583 -78.0383 North 454 522 37,000  Level Washington Center
08:43AM 33.5800 -78.0144 North 448 516 37,000  Level Washington Center
08:44AM 33.7033 -77.9931 North 443 510 37,000  Level Washington Center
08:46AM 33.8228 -77.9717 North 443 510 37,000  Level Washington Center
08:47AM 33.9506 -77.9450 10° North 448 516 37,000  Level Washington Center
08:47AM 34.0719 -77.9261 North 448 516 37,000  Level Washington Center
08:48AM 34.1933 -77.9044 North 448 516 37,000  Level Washington Center
08:49AM 34.3314 -77.8806 North 448 516 37,000  Level Washington Center
08:51AM 34.4528 -77.8639 North 448 516 37,000  Level Washington Center
08:51AM 34.5761 -77.8547 North 443 510 37,000  Level Washington Center
08:52AM 34.6972 -77.8403 North 443 510 37,000  Level Washington Center
08:53AM 34.7956 -77.8328 North 443 510 37,000  Level Washington Center
08:54AM 34.9294 -77.8111 North 443 510 37,000  Level Washington Center
08:55AM 35.0528 -77.7994 North 443 510 37,000  Level Washington Center
08:57AM 35.1742 -77.7875 North 443 510 37,000  Level Washington Center
08:57AM 35.2953 -77.7731 North 443 510 37,000  Level Washington Center
08:59AM 35.4186 -77.7611 North 443 510 37,000  Level Washington Center
09:00AM 35.5400 -77.7489 North 443 510 37,000  Level Washington Center
09:01AM 35.6653 -77.7344 North 443 510 37,000  Level Washington Center
09:01AM 35.7867 -77.7225 North 443 510 37,000  Level Washington Center
09:02AM 35.9100 -77.7103 North 443 510 37,000  Level Washington Center
09:03AM 36.0314 -77.6853 North 443 510 37,000  Level Washington Center
09:05AM 36.1492 -77.6319 20° North 443 510 37,000  Level Washington Center
09:05AM 36.2669 -77.5808 19° North 443 510 37,000  Level Washington Center
09:06AM 36.3825 -77.5322 19° North 443 510 37,000  Level Washington Center
09:07AM 36.4917 -77.4831 20° North 426 490 37,000  Level Washington Center
09:08AM 36.6092 -77.4317 19° North 432 497 37,000  Level Washington Center
09:10AM 36.7247 -77.3825 19° North 432 497 37,000  Level Washington Center
09:10AM 36.8383 -77.3306 20° North 432 497 37,000  Level Washington Center
09:11AM 36.9536 -77.2814 19° North 432 497 37,000  Level Washington Center
09:12AM 37.0692 -77.2317 19° North 432 497 37,000  Level Washington Center
09:13AM 37.1825 -77.1819 19° North 432 497 37,000  Level Washington Center
09:15AM 37.3083 -77.1219 21° North 432 497 37,000  Level Washington Center
09:16AM 37.4072 -77.0508 30° Northeast 432 497 37,000  Level Washington Center
09:16AM 37.5333 -76.9694 27° Northeast 444 511 37,000  Level Washington Center
09:17AM 37.6322 -76.8925 32° Northeast 439 505 37,000  Level Washington Center
09:19AM 37.7394 -76.8128 30° Northeast 439 505 37,000  Level Washington Center
09:19AM 37.8444 -76.7331 31° Northeast 439 505 37,000  Level Washington Center
09:20AM 37.9494 -76.6556 30° Northeast 439 505 37,000  Level Washington Center
09:22AM 38.0567 -76.5753 31° Northeast 434 499 37,000  Level Washington Center
09:23AM 38.1614 -76.4950 31° Northeast 434 499 37,000  Level Washington Center
09:23AM 38.2642 -76.4142 32° Northeast 434 499 37,000  Level Washington Center
09:24AM 38.3522 -76.3383 34° Northeast 434 499 37,000  Level Washington Center
09:25AM 38.4528 -76.2467 36° Northeast 434 499 37,000  Level Washington Center
09:26AM 38.5514 -76.1517 37° Northeast 434 499 37,000 -900 Level Washington Center
09:27AM 38.6497 -76.0622 35° Northeast 434 499 35,300 -2,280 Descending Washington Center
09:29AM 38.7500 -75.9669 37° Northeast 434 499 32,500 -3,240 Descending Washington Center
09:29AM 38.8506 -75.8714 36° Northeast 434 499 29,000 -2,820 Descending Washington Center
09:30AM 38.9528 -75.7786 35° Northeast 441 507 27,000 -1,020 Descending Washington Center
09:31AM 39.0531 -75.6825 37° Northeast 446 513 27,000  Level Washington Center
09:33AM 39.1592 -75.5889 34° Northeast 455 524 27,000  Level Washington Center
09:33AM 39.2697 -75.4844 36° Northeast 455 524 27,000 -60 Level Washington Center
09:34AM 39.3633 -75.4036 34° Northeast 441 507 26,900 -1,140 Descending Washington Center
09:36AM 39.4778 -75.3011 35° Northeast 446 513 24,700 -2,280 Descending Washington Center
09:37AM 39.5672 -75.2200 35° Northeast 446 513 22,400 -2,580 Descending Washington Center
09:37AM 39.6731 -75.1197 36° Northeast 434 499 19,700 -2,700 Descending Washington Center
09:38AM 39.7686 -75.0328 35° Northeast 429 494 17,100 -2,460 Descending Washington Center
09:39AM 39.8661 -74.9536 32° Northeast 414 476 14,800 -2,520 Descending Washington Center
09:40AM 39.9500 -74.8667 38° Northeast 395 455 12,300 -1,860 Descending New York TRACON
09:41AM 40.0167 -74.7667 49° Northeast 375 432 11,200 -1,140 Descending New York TRACON
09:42AM 40.0833 -74.6667 49° Northeast 373 429 10,100 -600 Descending New York TRACON
09:43AM 40.1500 -74.5667 49° Northeast 369 425 10,000 -60 Descending New York TRACON
09:44AM 40.2333 -74.4667 42° Northeast 365 420 10,000  Level New York TRACON
09:45AM 40.3000 -74.3667 49° Northeast 354 407 10,000 -540 Level New York TRACON
09:46AM 40.3667 -74.3000 37° Northeast 307 353 9,000 -1,320 Descending New York TRACON
09:47AM 40.4167 -74.2167 52° Northeast 299 344 7,400 -1,080 Descending New York TRACON
09:48AM 40.4833 -74.1500 37° Northeast 292 336 6,900 -1,380 Descending New York TRACON
09:49AM 40.5333 -74.0833 45° Northeast 291 335 4,800 -1,560 Descending New York TRACON
09:50AM 40.6167 -74.0500 17° North 279 321 4,000 -420 Descending New York TRACON
09:51AM 40.6833 -74.0333 11° North 279 321 4,000 -60 Level New York TRACON
09:52AM 40.7667 -74.0167 North 281 323 3,900 -540 Descending New York TRACON
09:53AM 40.8167 -73.9500 45° Northeast 276 318 3,000 -480 Descending New York TRACON
09:54AM 40.8833 -73.8833 37° Northeast 223 257 3,000 -60 Level New York TRACON
09:55AM 40.9167 -73.8333 49° Northeast 209 241 2,900 -540 Descending New York TRACON
09:56AM 40.8833 -73.7833 131° Southeast 206 237 2,000 -840 Descending New York TRACON
09:57AM 40.8500 -73.8167 217° Southwest 160 184 1,300 -720 Descending New York TRACON